sensor_id;sensor_type;location;lat;lon;timestamp;P1;durP1;ratioP1;P2;durP2;ratioP2
55539;SDS011;41384;51.418;7.286;2023-04-03T00:01:05;11.55;;;7.95;;
55539;SDS011;41384;51.418;7.286;2023-04-03T00:03:31;10.30;;;7.03;;
55539;SDS011;41384;51.418;7.286;2023-04-03T00:05:56;13.23;;;7.82;;
55539;SDS011;41384;51.418;7.286;2023-04-03T00:08:22;12.48;;;7.93;;
55539;SDS011;41384;51.418;7.286;2023-04-03T00:10:47;18.25;;;8.32;;
55539;SDS011;41384;51.418;7.286;2023-04-03T00:13:12;11.55;;;8.30;;
55539;SDS011;41384;51.418;7.286;2023-04-03T00:15:38;12.40;;;7.93;;
55539;SDS011;41384;51.418;7.286;2023-04-03T00:18:04;13.13;;;8.18;;
55539;SDS011;41384;51.418;7.286;2023-04-03T00:20:30;12.35;;;8.45;;
55539;SDS011;41384;51.418;7.286;2023-04-03T00:22:55;13.20;;;8.25;;
55539;SDS011;41384;51.418;7.286;2023-04-03T00:25:21;11.98;;;7.90;;
55539;SDS011;41384;51.418;7.286;2023-04-03T00:27:46;11.63;;;8.05;;
55539;SDS011;41384;51.418;7.286;2023-04-03T00:30:13;10.15;;;7.40;;
55539;SDS011;41384;51.418;7.286;2023-04-03T00:32:39;12.43;;;7.75;;
55539;SDS011;41384;51.418;7.286;2023-04-03T00:35:05;13.07;;;7.90;;
55539;SDS011;41384;51.418;7.286;2023-04-03T00:37:31;11.80;;;7.72;;
55539;SDS011;41384;51.418;7.286;2023-04-03T00:39:57;14.07;;;8.10;;
55539;SDS011;41384;51.418;7.286;2023-04-03T00:42:22;15.02;;;8.23;;
55539;SDS011;41384;51.418;7.286;2023-04-03T00:47:13;11.77;;;8.38;;
55539;SDS011;41384;51.418;7.286;2023-04-03T00:49:42;13.68;;;8.40;;
55539;SDS011;41384;51.418;7.286;2023-04-03T00:52:10;11.52;;;8.35;;
55539;SDS011;41384;51.418;7.286;2023-04-03T00:54:38;12.93;;;8.02;;
55539;SDS011;41384;51.418;7.286;2023-04-03T00:57:05;13.48;;;8.80;;
55539;SDS011;41384;51.418;7.286;2023-04-03T00:59:33;15.40;;;9.40;;
55539;SDS011;41384;51.418;7.286;2023-04-03T01:02:01;13.75;;;9.13;;
55539;SDS011;41384;51.418;7.286;2023-04-03T01:04:27;13.82;;;8.88;;
55539;SDS011;41384;51.418;7.286;2023-04-03T01:06:54;14.38;;;8.68;;
55539;SDS011;41384;51.418;7.286;2023-04-03T01:09:23;13.75;;;9.18;;
55539;SDS011;41384;51.418;7.286;2023-04-03T01:11:48;14.10;;;8.13;;
55539;SDS011;41384;51.418;7.286;2023-04-03T01:14:14;12.88;;;7.93;;
55539;SDS011;41384;51.418;7.286;2023-04-03T01:16:39;10.80;;;7.15;;
55539;SDS011;41384;51.418;7.286;2023-04-03T01:19:09;11.25;;;6.75;;
55539;SDS011;41384;51.418;7.286;2023-04-03T01:24:27;9.93;;;6.43;;
55539;SDS011;41384;51.418;7.286;2023-04-03T01:26:57;9.55;;;6.80;;
55539;SDS011;41384;51.418;7.286;2023-04-03T01:29:23;10.48;;;6.60;;
55539;SDS011;41384;51.418;7.286;2023-04-03T01:31:55;10.50;;;6.40;;
55539;SDS011;41384;51.418;7.286;2023-04-03T01:34:22;8.93;;;5.97;;
55539;SDS011;41384;51.418;7.286;2023-04-03T01:36:48;7.75;;;5.78;;
55539;SDS011;41384;51.418;7.286;2023-04-03T01:39:14;7.90;;;5.60;;
55539;SDS011;41384;51.418;7.286;2023-04-03T01:41:39;7.70;;;5.50;;
55539;SDS011;41384;51.418;7.286;2023-04-03T01:44:05;8.43;;;5.50;;
55539;SDS011;41384;51.418;7.286;2023-04-03T01:46:30;7.70;;;5.10;;
55539;SDS011;41384;51.418;7.286;2023-04-03T01:48:55;7.85;;;5.38;;
55539;SDS011;41384;51.418;7.286;2023-04-03T01:51:21;8.13;;;4.57;;
55539;SDS011;41384;51.418;7.286;2023-04-03T01:53:46;8.07;;;4.75;;
55539;SDS011;41384;51.418;7.286;2023-04-03T01:56:11;6.28;;;5.13;;
55539;SDS011;41384;51.418;7.286;2023-04-03T01:58:36;7.45;;;4.38;;
55539;SDS011;41384;51.418;7.286;2023-04-03T02:01:02;5.55;;;4.65;;
55539;SDS011;41384;51.418;7.286;2023-04-03T02:03:27;7.03;;;4.47;;
55539;SDS011;41384;51.418;7.286;2023-04-03T02:05:53;7.15;;;3.83;;
55539;SDS011;41384;51.418;7.286;2023-04-03T02:08:18;7.57;;;4.22;;
55539;SDS011;41384;51.418;7.286;2023-04-03T02:10:44;6.90;;;4.05;;
55539;SDS011;41384;51.418;7.286;2023-04-03T02:13:12;5.88;;;4.00;;
55539;SDS011;41384;51.418;7.286;2023-04-03T02:15:38;4.53;;;3.58;;
55539;SDS011;41384;51.418;7.286;2023-04-03T02:18:04;5.07;;;3.53;;
55539;SDS011;41384;51.418;7.286;2023-04-03T02:20:29;5.43;;;3.63;;
55539;SDS011;41384;51.418;7.286;2023-04-03T02:22:55;6.00;;;3.45;;
55539;SDS011;41384;51.418;7.286;2023-04-03T02:25:20;6.03;;;3.55;;
55539;SDS011;41384;51.418;7.286;2023-04-03T02:27:46;5.75;;;3.58;;
55539;SDS011;41384;51.418;7.286;2023-04-03T02:30:11;6.03;;;3.30;;
55539;SDS011;41384;51.418;7.286;2023-04-03T02:32:37;3.67;;;3.25;;
55539;SDS011;41384;51.418;7.286;2023-04-03T02:35:03;5.82;;;3.70;;
55539;SDS011;41384;51.418;7.286;2023-04-03T02:37:28;6.80;;;4.68;;
55539;SDS011;41384;51.418;7.286;2023-04-03T02:39:54;9.30;;;4.97;;
55539;SDS011;41384;51.418;7.286;2023-04-03T02:42:19;16.02;;;6.32;;
55539;SDS011;41384;51.418;7.286;2023-04-03T02:44:45;16.10;;;6.20;;
55539;SDS011;41384;51.418;7.286;2023-04-03T02:47:10;9.98;;;5.15;;
55539;SDS011;41384;51.418;7.286;2023-04-03T02:49:35;8.48;;;4.10;;
55539;SDS011;41384;51.418;7.286;2023-04-03T02:52:00;6.93;;;3.50;;
55539;SDS011;41384;51.418;7.286;2023-04-03T02:54:26;3.78;;;2.70;;
55539;SDS011;41384;51.418;7.286;2023-04-03T02:56:53;3.00;;;2.65;;
55539;SDS011;41384;51.418;7.286;2023-04-03T02:59:19;3.88;;;2.53;;
55539;SDS011;41384;51.418;7.286;2023-04-03T03:01:44;4.13;;;2.55;;
55539;SDS011;41384;51.418;7.286;2023-04-03T03:04:10;6.25;;;2.38;;
55539;SDS011;41384;51.418;7.286;2023-04-03T03:06:35;4.82;;;2.30;;
55539;SDS011;41384;51.418;7.286;2023-04-03T03:09:00;4.53;;;2.17;;
55539;SDS011;41384;51.418;7.286;2023-04-03T03:11:26;6.72;;;2.33;;
55539;SDS011;41384;51.418;7.286;2023-04-03T03:13:51;5.30;;;2.30;;
55539;SDS011;41384;51.418;7.286;2023-04-03T03:16:16;5.47;;;2.28;;
55539;SDS011;41384;51.418;7.286;2023-04-03T03:18:41;4.45;;;2.45;;
55539;SDS011;41384;51.418;7.286;2023-04-03T03:21:08;6.22;;;2.78;;
55539;SDS011;41384;51.418;7.286;2023-04-03T03:23:34;6.93;;;2.40;;
55539;SDS011;41384;51.418;7.286;2023-04-03T03:26:04;4.90;;;2.20;;
55539;SDS011;41384;51.418;7.286;2023-04-03T03:28:31;7.20;;;2.10;;
55539;SDS011;41384;51.418;7.286;2023-04-03T03:30:58;6.43;;;2.20;;
55539;SDS011;41384;51.418;7.286;2023-04-03T03:33:24;5.18;;;2.10;;
55539;SDS011;41384;51.418;7.286;2023-04-03T03:35:50;5.68;;;2.30;;
55539;SDS011;41384;51.418;7.286;2023-04-03T03:38:16;5.60;;;2.33;;
55539;SDS011;41384;51.418;7.286;2023-04-03T03:40:41;6.82;;;2.67;;
55539;SDS011;41384;51.418;7.286;2023-04-03T03:43:06;2.30;;;1.65;;
55539;SDS011;41384;51.418;7.286;2023-04-03T03:45:32;3.92;;;2.20;;
55539;SDS011;41384;51.418;7.286;2023-04-03T03:47:57;4.68;;;2.05;;
55539;SDS011;41384;51.418;7.286;2023-04-03T03:50:22;3.47;;;1.80;;
55539;SDS011;41384;51.418;7.286;2023-04-03T03:52:47;4.35;;;1.92;;
55539;SDS011;41384;51.418;7.286;2023-04-03T03:55:13;5.63;;;2.03;;
55539;SDS011;41384;51.418;7.286;2023-04-03T03:57:38;5.07;;;2.00;;
55539;SDS011;41384;51.418;7.286;2023-04-03T04:00:03;1.90;;;1.60;;
55539;SDS011;41384;51.418;7.286;2023-04-03T04:02:30;4.22;;;2.22;;
55539;SDS011;41384;51.418;7.286;2023-04-03T04:04:55;2.42;;;1.65;;
55539;SDS011;41384;51.418;7.286;2023-04-03T04:07:20;6.45;;;2.00;;
55539;SDS011;41384;51.418;7.286;2023-04-03T04:09:46;5.70;;;2.63;;
55539;SDS011;41384;51.418;7.286;2023-04-03T04:12:11;4.95;;;1.90;;
55539;SDS011;41384;51.418;7.286;2023-04-03T04:14:36;4.32;;;1.92;;
55539;SDS011;41384;51.418;7.286;2023-04-03T04:17:01;3.55;;;2.08;;
55539;SDS011;41384;51.418;7.286;2023-04-03T04:19:27;4.93;;;1.95;;
55539;SDS011;41384;51.418;7.286;2023-04-03T04:21:52;2.25;;;1.95;;
55539;SDS011;41384;51.418;7.286;2023-04-03T04:24:18;4.78;;;1.75;;
55539;SDS011;41384;51.418;7.286;2023-04-03T04:26:43;2.40;;;2.00;;
55539;SDS011;41384;51.418;7.286;2023-04-03T04:29:09;6.68;;;2.30;;
55539;SDS011;41384;51.418;7.286;2023-04-03T04:31:35;4.82;;;2.00;;
55539;SDS011;41384;51.418;7.286;2023-04-03T04:34:00;3.65;;;1.90;;
55539;SDS011;41384;51.418;7.286;2023-04-03T04:36:25;4.40;;;1.75;;
55539;SDS011;41384;51.418;7.286;2023-04-03T04:38:51;4.13;;;2.10;;
55539;SDS011;41384;51.418;7.286;2023-04-03T04:41:18;4.38;;;2.45;;
55539;SDS011;41384;51.418;7.286;2023-04-03T04:43:47;5.70;;;2.13;;
55539;SDS011;41384;51.418;7.286;2023-04-03T04:46:13;6.53;;;2.10;;
55539;SDS011;41384;51.418;7.286;2023-04-03T04:48:38;4.38;;;2.13;;
55539;SDS011;41384;51.418;7.286;2023-04-03T04:51:04;4.32;;;2.15;;
55539;SDS011;41384;51.418;7.286;2023-04-03T04:53:29;5.28;;;2.10;;
55539;SDS011;41384;51.418;7.286;2023-04-03T04:55:55;7.38;;;2.90;;
55539;SDS011;41384;51.418;7.286;2023-04-03T04:58:20;4.85;;;2.67;;
55539;SDS011;41384;51.418;7.286;2023-04-03T05:00:46;4.80;;;2.22;;
55539;SDS011;41384;51.418;7.286;2023-04-03T05:03:12;4.53;;;2.38;;
55539;SDS011;41384;51.418;7.286;2023-04-03T05:05:37;3.15;;;2.30;;
55539;SDS011;41384;51.418;7.286;2023-04-03T05:08:03;7.78;;;2.50;;
55539;SDS011;41384;51.418;7.286;2023-04-03T05:10:29;5.70;;;2.63;;
55539;SDS011;41384;51.418;7.286;2023-04-03T05:12:55;6.25;;;2.35;;
55539;SDS011;41384;51.418;7.286;2023-04-03T05:15:20;5.53;;;2.20;;
55539;SDS011;41384;51.418;7.286;2023-04-03T05:17:45;5.25;;;2.17;;
55539;SDS011;41384;51.418;7.286;2023-04-03T05:20:11;6.57;;;2.20;;
55539;SDS011;41384;51.418;7.286;2023-04-03T05:22:37;6.18;;;2.35;;
55539;SDS011;41384;51.418;7.286;2023-04-03T05:25:02;4.57;;;2.10;;
55539;SDS011;41384;51.418;7.286;2023-04-03T05:27:28;3.35;;;1.90;;
55539;SDS011;41384;51.418;7.286;2023-04-03T05:29:54;4.07;;;1.90;;
55539;SDS011;41384;51.418;7.286;2023-04-03T05:32:20;6.28;;;2.03;;
55539;SDS011;41384;51.418;7.286;2023-04-03T05:34:46;4.72;;;2.15;;
55539;SDS011;41384;51.418;7.286;2023-04-03T05:37:12;4.07;;;2.00;;
55539;SDS011;41384;51.418;7.286;2023-04-03T05:39:37;5.25;;;2.53;;
55539;SDS011;41384;51.418;7.286;2023-04-03T05:42:05;6.35;;;2.40;;
55539;SDS011;41384;51.418;7.286;2023-04-03T05:44:30;2.88;;;2.13;;
55539;SDS011;41384;51.418;7.286;2023-04-03T05:46:55;3.20;;;1.95;;
55539;SDS011;41384;51.418;7.286;2023-04-03T05:49:21;5.60;;;2.45;;
55539;SDS011;41384;51.418;7.286;2023-04-03T05:51:46;7.22;;;2.58;;
55539;SDS011;41384;51.418;7.286;2023-04-03T05:54:12;3.42;;;2.15;;
55539;SDS011;41384;51.418;7.286;2023-04-03T05:56:42;6.10;;;2.45;;
55539;SDS011;41384;51.418;7.286;2023-04-03T05:59:08;6.70;;;2.70;;
55539;SDS011;41384;51.418;7.286;2023-04-03T06:01:34;7.03;;;3.60;;
55539;SDS011;41384;51.418;7.286;2023-04-03T06:03:59;10.73;;;3.65;;
55539;SDS011;41384;51.418;7.286;2023-04-03T06:06:24;6.40;;;3.45;;
55539;SDS011;41384;51.418;7.286;2023-04-03T06:08:50;5.25;;;3.13;;
55539;SDS011;41384;51.418;7.286;2023-04-03T06:11:16;7.90;;;3.45;;
55539;SDS011;41384;51.418;7.286;2023-04-03T06:13:41;8.52;;;3.58;;
55539;SDS011;41384;51.418;7.286;2023-04-03T06:16:07;5.13;;;3.05;;
55539;SDS011;41384;51.418;7.286;2023-04-03T06:18:42;4.68;;;2.58;;
55539;SDS011;41384;51.418;7.286;2023-04-03T06:21:07;6.72;;;3.17;;
55539;SDS011;41384;51.418;7.286;2023-04-03T06:23:32;11.38;;;3.25;;
55539;SDS011;41384;51.418;7.286;2023-04-03T06:25:58;7.30;;;2.90;;
55539;SDS011;41384;51.418;7.286;2023-04-03T06:28:23;7.68;;;2.88;;
55539;SDS011;41384;51.418;7.286;2023-04-03T06:30:48;7.18;;;3.17;;
55539;SDS011;41384;51.418;7.286;2023-04-03T06:33:14;7.30;;;2.75;;
55539;SDS011;41384;51.418;7.286;2023-04-03T06:35:39;6.43;;;2.40;;
55539;SDS011;41384;51.418;7.286;2023-04-03T06:38:05;2.70;;;2.15;;
55539;SDS011;41384;51.418;7.286;2023-04-03T06:40:34;8.45;;;2.70;;
55539;SDS011;41384;51.418;7.286;2023-04-03T06:43:00;3.08;;;2.20;;
55539;SDS011;41384;51.418;7.286;2023-04-03T06:45:26;8.40;;;2.28;;
55539;SDS011;41384;51.418;7.286;2023-04-03T06:47:52;5.85;;;2.03;;
55539;SDS011;41384;51.418;7.286;2023-04-03T06:50:18;5.47;;;1.92;;
55539;SDS011;41384;51.418;7.286;2023-04-03T06:52:44;7.35;;;2.15;;
55539;SDS011;41384;51.418;7.286;2023-04-03T06:55:09;5.57;;;1.95;;
55539;SDS011;41384;51.418;7.286;2023-04-03T06:57:36;5.15;;;1.92;;
55539;SDS011;41384;51.418;7.286;2023-04-03T07:00:03;6.20;;;1.88;;
55539;SDS011;41384;51.418;7.286;2023-04-03T07:02:30;5.28;;;2.17;;
55539;SDS011;41384;51.418;7.286;2023-04-03T07:04:55;4.50;;;1.80;;
55539;SDS011;41384;51.418;7.286;2023-04-03T07:07:21;3.85;;;2.20;;
55539;SDS011;41384;51.418;7.286;2023-04-03T07:09:46;5.40;;;2.08;;
55539;SDS011;41384;51.418;7.286;2023-04-03T07:12:12;3.40;;;1.90;;
55539;SDS011;41384;51.418;7.286;2023-04-03T07:14:38;4.63;;;2.15;;
55539;SDS011;41384;51.418;7.286;2023-04-03T07:17:03;7.47;;;2.20;;
55539;SDS011;41384;51.418;7.286;2023-04-03T07:19:28;6.50;;;2.20;;
55539;SDS011;41384;51.418;7.286;2023-04-03T07:21:54;5.72;;;2.35;;
55539;SDS011;41384;51.418;7.286;2023-04-03T07:24:20;7.25;;;2.55;;
55539;SDS011;41384;51.418;7.286;2023-04-03T07:26:48;6.05;;;2.47;;
55539;SDS011;41384;51.418;7.286;2023-04-03T07:29:14;4.82;;;2.25;;
55539;SDS011;41384;51.418;7.286;2023-04-03T07:31:39;3.95;;;2.58;;
55539;SDS011;41384;51.418;7.286;2023-04-03T07:34:06;4.03;;;2.15;;
55539;SDS011;41384;51.418;7.286;2023-04-03T07:36:31;6.40;;;2.30;;
55539;SDS011;41384;51.418;7.286;2023-04-03T07:38:58;6.43;;;2.50;;
55539;SDS011;41384;51.418;7.286;2023-04-03T07:41:23;7.55;;;2.60;;
55539;SDS011;41384;51.418;7.286;2023-04-03T07:43:49;4.38;;;2.05;;
55539;SDS011;41384;51.418;7.286;2023-04-03T07:46:14;4.93;;;1.85;;
55539;SDS011;41384;51.418;7.286;2023-04-03T07:48:40;3.70;;;2.28;;
55539;SDS011;41384;51.418;7.286;2023-04-03T07:51:05;6.28;;;2.33;;
55539;SDS011;41384;51.418;7.286;2023-04-03T07:53:31;4.07;;;2.13;;
55539;SDS011;41384;51.418;7.286;2023-04-03T07:55:57;5.78;;;2.08;;
55539;SDS011;41384;51.418;7.286;2023-04-03T07:58:24;6.43;;;2.13;;
55539;SDS011;41384;51.418;7.286;2023-04-03T08:00:50;5.32;;;1.75;;
55539;SDS011;41384;51.418;7.286;2023-04-03T08:03:16;5.63;;;2.13;;
55539;SDS011;41384;51.418;7.286;2023-04-03T08:05:43;4.53;;;1.88;;
55539;SDS011;41384;51.418;7.286;2023-04-03T08:08:11;2.97;;;1.70;;
55539;SDS011;41384;51.418;7.286;2023-04-03T08:10:38;4.60;;;2.10;;
55539;SDS011;41384;51.418;7.286;2023-04-03T08:13:04;6.50;;;1.95;;
55539;SDS011;41384;51.418;7.286;2023-04-03T08:15:30;3.38;;;1.70;;
55539;SDS011;41384;51.418;7.286;2023-04-03T08:17:56;3.75;;;1.80;;
55539;SDS011;41384;51.418;7.286;2023-04-03T08:20:21;3.50;;;1.48;;
55539;SDS011;41384;51.418;7.286;2023-04-03T08:22:47;6.03;;;2.15;;
55539;SDS011;41384;51.418;7.286;2023-04-03T08:25:12;6.78;;;2.10;;
55539;SDS011;41384;51.418;7.286;2023-04-03T08:27:37;3.40;;;1.70;;
55539;SDS011;41384;51.418;7.286;2023-04-03T08:30:03;5.85;;;2.08;;
55539;SDS011;41384;51.418;7.286;2023-04-03T08:32:29;4.07;;;1.80;;
55539;SDS011;41384;51.418;7.286;2023-04-03T08:34:55;2.65;;;1.60;;
55539;SDS011;41384;51.418;7.286;2023-04-03T08:37:20;2.92;;;1.52;;
55539;SDS011;41384;51.418;7.286;2023-04-03T08:39:46;2.30;;;1.50;;
55539;SDS011;41384;51.418;7.286;2023-04-03T08:42:15;2.70;;;1.30;;
55539;SDS011;41384;51.418;7.286;2023-04-03T08:50:13;3.60;;;1.73;;
55539;SDS011;41384;51.418;7.286;2023-04-03T08:52:44;2.97;;;1.92;;
55539;SDS011;41384;51.418;7.286;2023-04-03T08:58:05;3.53;;;1.67;;
55539;SDS011;41384;51.418;7.286;2023-04-03T09:00:39;4.40;;;1.30;;
55539;SDS011;41384;51.418;7.286;2023-04-03T09:03:14;2.13;;;1.25;;
55539;SDS011;41384;51.418;7.286;2023-04-03T09:05:53;1.52;;;1.05;;
55539;SDS011;41384;51.418;7.286;2023-04-03T09:08:29;3.63;;;1.60;;
55539;SDS011;41384;51.418;7.286;2023-04-03T09:11:41;3.22;;;1.50;;
55539;SDS011;41384;51.418;7.286;2023-04-03T09:13:52;6.85;;;1.80;;
55539;SDS011;41384;51.418;7.286;2023-04-03T09:16:27;3.13;;;1.77;;
55539;SDS011;41384;51.418;7.286;2023-04-03T09:18:57;3.22;;;1.70;;
55539;SDS011;41384;51.418;7.286;2023-04-03T09:21:32;2.53;;;1.33;;
55539;SDS011;41384;51.418;7.286;2023-04-03T09:24:02;3.53;;;1.33;;
55539;SDS011;41384;51.418;7.286;2023-04-03T09:26:36;2.78;;;1.40;;
55539;SDS011;41384;51.418;7.286;2023-04-03T09:29:08;4.32;;;1.40;;
55539;SDS011;41384;51.418;7.286;2023-04-03T09:31:40;4.00;;;1.25;;
55539;SDS011;41384;51.418;7.286;2023-04-03T09:36:56;3.25;;;1.23;;
55539;SDS011;41384;51.418;7.286;2023-04-03T09:39:25;4.78;;;1.30;;
55539;SDS011;41384;51.418;7.286;2023-04-03T09:44:24;4.20;;;1.45;;
55539;SDS011;41384;51.418;7.286;2023-04-03T09:46:51;2.20;;;1.45;;
55539;SDS011;41384;51.418;7.286;2023-04-03T09:49:17;2.05;;;1.10;;
55539;SDS011;41384;51.418;7.286;2023-04-03T09:51:42;3.30;;;1.20;;
55539;SDS011;41384;51.418;7.286;2023-04-03T09:57:07;2.95;;;1.23;;
55539;SDS011;41384;51.418;7.286;2023-04-03T09:59:35;3.55;;;1.13;;
55539;SDS011;41384;51.418;7.286;2023-04-03T10:04:37;2.63;;;1.20;;
55539;SDS011;41384;51.418;7.286;2023-04-03T10:07:04;9.07;;;1.42;;
55539;SDS011;41384;51.418;7.286;2023-04-03T10:10:00;5.22;;;1.17;;
55539;SDS011;41384;51.418;7.286;2023-04-03T10:12:28;4.72;;;1.40;;
55539;SDS011;41384;51.418;7.286;2023-04-03T10:14:57;3.40;;;1.20;;
55539;SDS011;41384;51.418;7.286;2023-04-03T10:25:42;3.88;;;1.05;;
55539;SDS011;41384;51.418;7.286;2023-04-03T10:37:00;2.38;;;1.02;;
55539;SDS011;41384;51.418;7.286;2023-04-03T10:39:46;3.50;;;1.30;;
55539;SDS011;41384;51.418;7.286;2023-04-03T10:42:44;4.35;;;1.23;;
55539;SDS011;41384;51.418;7.286;2023-04-03T10:47:55;1.73;;;1.15;;
55539;SDS011;41384;51.418;7.286;2023-04-03T10:50:27;2.08;;;1.00;;
55539;SDS011;41384;51.418;7.286;2023-04-03T10:53:04;1.23;;;0.75;;
55539;SDS011;41384;51.418;7.286;2023-04-03T10:55:58;1.63;;;0.90;;
55539;SDS011;41384;51.418;7.286;2023-04-03T10:58:41;3.50;;;1.00;;
55539;SDS011;41384;51.418;7.286;2023-04-03T11:01:11;3.10;;;1.00;;
55539;SDS011;41384;51.418;7.286;2023-04-03T11:03:45;3.33;;;1.20;;
55539;SDS011;41384;51.418;7.286;2023-04-03T11:06:15;2.25;;;1.10;;
55539;SDS011;41384;51.418;7.286;2023-04-03T11:09:03;3.03;;;1.20;;
55539;SDS011;41384;51.418;7.286;2023-04-03T11:11:38;1.15;;;0.82;;
55539;SDS011;41384;51.418;7.286;2023-04-03T11:14:22;2.05;;;1.05;;
55539;SDS011;41384;51.418;7.286;2023-04-03T11:17:06;1.50;;;0.77;;
55539;SDS011;41384;51.418;7.286;2023-04-03T11:22:39;0.93;;;0.60;;
55539;SDS011;41384;51.418;7.286;2023-04-03T11:25:14;3.72;;;1.20;;
55539;SDS011;41384;51.418;7.286;2023-04-03T11:27:48;2.20;;;1.40;;
55539;SDS011;41384;51.418;7.286;2023-04-03T11:33:18;3.17;;;1.10;;
55539;SDS011;41384;51.418;7.286;2023-04-03T11:35:52;4.47;;;0.95;;
55539;SDS011;41384;51.418;7.286;2023-04-03T11:38:23;0.82;;;0.73;;
55539;SDS011;41384;51.418;7.286;2023-04-03T11:40:51;1.35;;;0.80;;
55539;SDS011;41384;51.418;7.286;2023-04-03T11:43:23;5.68;;;1.17;;
55539;SDS011;41384;51.418;7.286;2023-04-03T11:45:55;3.53;;;0.82;;
55539;SDS011;41384;51.418;7.286;2023-04-03T11:50:53;1.33;;;0.80;;
55539;SDS011;41384;51.418;7.286;2023-04-03T11:53:35;1.92;;;0.75;;
55539;SDS011;41384;51.418;7.286;2023-04-03T11:56:26;0.75;;;0.60;;
55539;SDS011;41384;51.418;7.286;2023-04-03T12:01:53;1.45;;;0.82;;
55539;SDS011;41384;51.418;7.286;2023-04-03T12:04:22;2.03;;;0.93;;
55539;SDS011;41384;51.418;7.286;2023-04-03T12:06:53;4.18;;;1.33;;
55539;SDS011;41384;51.418;7.286;2023-04-03T12:11:51;1.50;;;0.90;;
55539;SDS011;41384;51.418;7.286;2023-04-03T12:14:17;2.08;;;0.88;;
55539;SDS011;41384;51.418;7.286;2023-04-03T12:16:44;4.93;;;1.23;;
55539;SDS011;41384;51.418;7.286;2023-04-03T12:31:58;4.63;;;0.90;;
55539;SDS011;41384;51.418;7.286;2023-04-03T12:40:27;1.35;;;0.80;;
55539;SDS011;41384;51.418;7.286;2023-04-03T12:43:13;4.68;;;1.40;;
55539;SDS011;41384;51.418;7.286;2023-04-03T12:45:58;3.20;;;1.08;;
55539;SDS011;41384;51.418;7.286;2023-04-03T12:48:30;3.72;;;1.05;;
55539;SDS011;41384;51.418;7.286;2023-04-03T12:50:58;4.53;;;1.00;;
55539;SDS011;41384;51.418;7.286;2023-04-03T12:53:25;2.75;;;1.30;;
55539;SDS011;41384;51.418;7.286;2023-04-03T12:55:56;2.33;;;1.00;;
55539;SDS011;41384;51.418;7.286;2023-04-03T12:58:42;1.90;;;0.77;;
55539;SDS011;41384;51.418;7.286;2023-04-03T13:01:15;1.80;;;0.77;;
55539;SDS011;41384;51.418;7.286;2023-04-03T13:03:44;2.00;;;0.82;;
55539;SDS011;41384;51.418;7.286;2023-04-03T13:06:22;1.52;;;0.95;;
55539;SDS011;41384;51.418;7.286;2023-04-03T13:08:51;3.42;;;1.08;;
55539;SDS011;41384;51.418;7.286;2023-04-03T13:11:18;2.15;;;0.90;;
55539;SDS011;41384;51.418;7.286;2023-04-03T13:13:57;1.55;;;0.80;;
55539;SDS011;41384;51.418;7.286;2023-04-03T13:16:28;1.02;;;0.77;;
55539;SDS011;41384;51.418;7.286;2023-04-03T13:18:54;1.95;;;0.88;;
55539;SDS011;41384;51.418;7.286;2023-04-03T13:21:24;3.15;;;1.00;;
55539;SDS011;41384;51.418;7.286;2023-04-03T13:23:53;1.20;;;0.90;;
55539;SDS011;41384;51.418;7.286;2023-04-03T13:26:22;1.58;;;0.93;;
55539;SDS011;41384;51.418;7.286;2023-04-03T13:28:51;1.65;;;0.90;;
55539;SDS011;41384;51.418;7.286;2023-04-03T13:31:52;2.38;;;0.80;;
55539;SDS011;41384;51.418;7.286;2023-04-03T13:36:36;1.70;;;0.85;;
55539;SDS011;41384;51.418;7.286;2023-04-03T13:41:38;1.33;;;0.88;;
55539;SDS011;41384;51.418;7.286;2023-04-03T13:46:50;1.48;;;0.77;;
55539;SDS011;41384;51.418;7.286;2023-04-03T13:49:36;3.20;;;1.10;;
55539;SDS011;41384;51.418;7.286;2023-04-03T13:54:52;3.00;;;0.80;;
55539;SDS011;41384;51.418;7.286;2023-04-03T13:57:22;1.73;;;0.80;;
55539;SDS011;41384;51.418;7.286;2023-04-03T13:59:47;2.38;;;0.80;;
55539;SDS011;41384;51.418;7.286;2023-04-03T14:02:19;2.70;;;0.90;;
55539;SDS011;41384;51.418;7.286;2023-04-03T14:04:49;2.50;;;1.00;;
55539;SDS011;41384;51.418;7.286;2023-04-03T14:07:18;3.13;;;0.98;;
55539;SDS011;41384;51.418;7.286;2023-04-03T14:09:44;0.73;;;0.63;;
55539;SDS011;41384;51.418;7.286;2023-04-03T14:12:15;1.80;;;0.80;;
55539;SDS011;41384;51.418;7.286;2023-04-03T14:14:44;2.60;;;0.90;;
55539;SDS011;41384;51.418;7.286;2023-04-03T14:17:13;2.22;;;0.95;;
55539;SDS011;41384;51.418;7.286;2023-04-03T14:19:44;3.35;;;0.95;;
55539;SDS011;41384;51.418;7.286;2023-04-03T14:24:47;2.40;;;0.88;;
55539;SDS011;41384;51.418;7.286;2023-04-03T14:27:18;1.77;;;0.90;;
55539;SDS011;41384;51.418;7.286;2023-04-03T14:29:46;1.52;;;0.93;;
55539;SDS011;41384;51.418;7.286;2023-04-03T14:32:14;1.95;;;0.75;;
55539;SDS011;41384;51.418;7.286;2023-04-03T14:34:41;4.10;;;1.10;;
55539;SDS011;41384;51.418;7.286;2023-04-03T14:37:15;1.30;;;0.90;;
55539;SDS011;41384;51.418;7.286;2023-04-03T14:39:43;3.40;;;0.90;;
55539;SDS011;41384;51.418;7.286;2023-04-03T14:42:17;2.90;;;1.02;;
55539;SDS011;41384;51.418;7.286;2023-04-03T14:44:43;2.25;;;0.90;;
55539;SDS011;41384;51.418;7.286;2023-04-03T14:47:12;3.80;;;1.33;;
55539;SDS011;41384;51.418;7.286;2023-04-03T14:49:40;3.42;;;0.90;;
55539;SDS011;41384;51.418;7.286;2023-04-03T14:52:09;1.88;;;1.10;;
55539;SDS011;41384;51.418;7.286;2023-04-03T14:54:44;2.05;;;0.98;;
55539;SDS011;41384;51.418;7.286;2023-04-03T14:57:11;2.95;;;0.80;;
55539;SDS011;41384;51.418;7.286;2023-04-03T14:59:39;1.23;;;0.90;;
55539;SDS011;41384;51.418;7.286;2023-04-03T15:02:22;3.63;;;0.90;;
55539;SDS011;41384;51.418;7.286;2023-04-03T15:04:52;3.65;;;1.20;;
55539;SDS011;41384;51.418;7.286;2023-04-03T15:07:17;3.05;;;1.00;;
55539;SDS011;41384;51.418;7.286;2023-04-03T15:09:43;2.83;;;1.17;;
55539;SDS011;41384;51.418;7.286;2023-04-03T15:12:09;3.55;;;1.10;;
55539;SDS011;41384;51.418;7.286;2023-04-03T15:14:34;3.13;;;0.85;;
55539;SDS011;41384;51.418;7.286;2023-04-03T15:17:00;2.13;;;0.88;;
55539;SDS011;41384;51.418;7.286;2023-04-03T15:19:25;1.88;;;1.00;;
55539;SDS011;41384;51.418;7.286;2023-04-03T15:21:50;2.90;;;1.00;;
55539;SDS011;41384;51.418;7.286;2023-04-03T15:24:16;4.93;;;1.65;;
55539;SDS011;41384;51.418;7.286;2023-04-03T15:26:41;2.97;;;1.38;;
55539;SDS011;41384;51.418;7.286;2023-04-03T15:29:06;5.78;;;1.30;;
55539;SDS011;41384;51.418;7.286;2023-04-03T15:31:32;3.33;;;1.52;;
55539;SDS011;41384;51.418;7.286;2023-04-03T15:33:57;2.53;;;1.40;;
55539;SDS011;41384;51.418;7.286;2023-04-03T15:36:22;2.40;;;1.15;;
55539;SDS011;41384;51.418;7.286;2023-04-03T15:38:48;3.33;;;1.27;;
55539;SDS011;41384;51.418;7.286;2023-04-03T15:41:13;2.92;;;1.17;;
55539;SDS011;41384;51.418;7.286;2023-04-03T15:43:38;2.78;;;0.90;;
55539;SDS011;41384;51.418;7.286;2023-04-03T15:46:04;7.03;;;1.35;;
55539;SDS011;41384;51.418;7.286;2023-04-03T15:48:29;2.63;;;1.00;;
55539;SDS011;41384;51.418;7.286;2023-04-03T15:50:55;3.17;;;1.05;;
55539;SDS011;41384;51.418;7.286;2023-04-03T15:53:20;3.95;;;1.10;;
55539;SDS011;41384;51.418;7.286;2023-04-03T15:55:46;1.73;;;1.15;;
55539;SDS011;41384;51.418;7.286;2023-04-03T15:58:11;2.03;;;1.02;;
55539;SDS011;41384;51.418;7.286;2023-04-03T16:00:37;2.83;;;1.02;;
55539;SDS011;41384;51.418;7.286;2023-04-03T16:03:07;2.67;;;0.95;;
55539;SDS011;41384;51.418;7.286;2023-04-03T16:05:36;3.60;;;0.80;;
55539;SDS011;41384;51.418;7.286;2023-04-03T16:08:03;1.52;;;1.10;;
55539;SDS011;41384;51.418;7.286;2023-04-03T16:10:30;3.17;;;1.35;;
55539;SDS011;41384;51.418;7.286;2023-04-03T16:12:55;5.93;;;1.10;;
55539;SDS011;41384;51.418;7.286;2023-04-03T16:15:21;2.10;;;1.17;;
55539;SDS011;41384;51.418;7.286;2023-04-03T16:17:47;1.67;;;1.30;;
55539;SDS011;41384;51.418;7.286;2023-04-03T16:20:13;1.95;;;1.08;;